createdAt,value
2023-03-22T00:01:57.231Z,92280.31
2023-03-22T00:04:27.154Z,92279.03
2023-03-22T00:06:58.018Z,92288.03
2023-03-22T00:09:27.489Z,92283.75
2023-03-22T00:11:57.147Z,92284.69
2023-03-22T00:14:26.646Z,92281.88
2023-03-22T00:16:55.993Z,92276.53
2023-03-22T00:19:26.504Z,92283.97
2023-03-22T00:21:57.325Z,92276.78
2023-03-22T00:24:26.683Z,92282.34
2023-03-22T00:26:56.714Z,92268.38
2023-03-22T00:29:26.094Z,92277.59
2023-03-22T00:31:56.349Z,92272.38
2023-03-22T00:34:27.318Z,92273.22
2023-03-22T00:36:58.028Z,92271.47
2023-03-22T00:39:28.309Z,92275.72
2023-03-22T00:41:57.732Z,92268.97
2023-03-22T00:44:27.130Z,92267.19
2023-03-22T00:50:19.718Z,92265.06
2023-03-22T00:52:49.114Z,92260.81
2023-03-22T00:55:18.750Z,92258.44
2023-03-22T00:57:48.300Z,92253.25
2023-03-22T01:00:19.010Z,92252.50
2023-03-22T01:02:48.515Z,92253.13
2023-03-22T01:05:22.185Z,92252.19
2023-03-22T01:07:52.274Z,92247.31
2023-03-22T01:10:22.136Z,92250.88
2023-03-22T01:12:51.880Z,92253.13
2023-03-22T01:15:22.833Z,92257.97
2023-03-22T01:17:52.813Z,92245.81
2023-03-22T01:20:23.808Z,92245.06
2023-03-22T01:22:53.344Z,92247.44
2023-03-22T01:25:23.116Z,92245.56
2023-03-22T01:27:52.610Z,92240.94
2023-03-22T01:30:22.348Z,92231.13
2023-03-22T01:32:51.740Z,92234.91
2023-03-22T01:35:23.009Z,92237.16
2023-03-22T01:37:52.648Z,92241.06
2023-03-22T01:40:22.407Z,92241.06
2023-03-22T01:42:51.790Z,92243.78
2023-03-22T01:45:42.372Z,92243.06
2023-03-22T01:48:23.483Z,92243.19
2023-03-22T01:51:05.233Z,92236.78
2023-03-22T01:53:38.619Z,92237.97
2023-03-22T01:56:09.394Z,92239.16
2023-03-22T01:58:40.397Z,92229.84
2023-03-22T02:01:12.286Z,92237.63
2023-03-22T02:03:50.284Z,92234.22
2023-03-22T02:06:22.371Z,92227.94
2023-03-22T02:08:53.209Z,92230.66
2023-03-22T02:11:32.577Z,92240.84
2023-03-22T02:14:27.370Z,92238.94
2023-03-22T02:17:23.876Z,92242.47
2023-03-22T02:20:55.443Z,92237.50
2023-03-22T02:24:23.782Z,92246.03
2023-03-22T02:27:37.722Z,92250.28
2023-03-22T02:30:39.260Z,92248.38
2023-03-22T02:33:51.989Z,92257.13
2023-03-22T02:37:08.793Z,92255.72
2023-03-22T02:39:51.487Z,92253.00
2023-03-22T02:42:41.657Z,92256.53
2023-03-22T02:45:17.972Z,92261.59
2023-03-22T02:48:00.833Z,92266.22
2023-03-22T02:50:32.277Z,92263.72
2023-03-22T02:53:08.832Z,92264.44
2023-03-22T02:55:45.848Z,92267.75
2023-03-22T02:58:21.551Z,92269.31
2023-03-22T03:00:57.040Z,92266.56
2023-03-22T03:03:30.788Z,92270.47
2023-03-22T03:06:04.627Z,92272.59
2023-03-22T03:08:34.647Z,92273.41
2023-03-22T03:11:05.731Z,92268.09
2023-03-22T03:13:35.330Z,92274.94
2023-03-22T03:16:08.085Z,92279.78
2023-03-22T03:18:46.135Z,92271.16
2023-03-22T03:21:32.926Z,92272.34
2023-03-22T03:24:17.173Z,92272.81
2023-03-22T03:26:57.803Z,92276.47
2023-03-22T03:29:35.475Z,92273.63
2023-03-22T03:32:09.756Z,92280.16
2023-03-22T03:34:45.693Z,92280.41
2023-03-22T03:37:20.087Z,92272.94
2023-03-22T03:39:57.828Z,92278.47
2023-03-22T03:42:31.600Z,92283.78
2023-03-22T03:45:01.929Z,92277.63
2023-03-22T03:47:31.834Z,92276.94
2023-03-22T03:51:19.676Z,92280.69
2023-03-22T03:53:49.148Z,92279.16
2023-03-22T03:56:18.533Z,92286.03
2023-03-22T03:58:48.086Z,92281.53
2023-03-22T04:01:19.890Z,92281.53
2023-03-22T04:03:50.915Z,92282.13
2023-03-22T04:06:21.666Z,92289.19
2023-03-22T04:08:53.972Z,92285.06
2023-03-22T04:11:23.581Z,92286.72
2023-03-22T04:13:53.050Z,92290.88
2023-03-22T04:16:22.432Z,92292.03
2023-03-22T04:18:51.952Z,92296.75
2023-03-22T04:21:23.154Z,92301.97
2023-03-22T04:23:52.514Z,92302.66
2023-03-22T04:26:21.837Z,92303.50
2023-03-22T04:28:51.298Z,92299.13
2023-03-22T04:31:20.800Z,92304.09
2023-03-22T04:33:55.143Z,92307.88
2023-03-22T04:36:31.450Z,92312.34
2023-03-22T04:39:00.894Z,92303.50
2023-03-22T04:41:30.393Z,92306.91
2023-03-22T04:44:03.681Z,92301.09
2023-03-22T04:46:34.622Z,92307.09
2023-03-22T04:49:04.636Z,92298.47
2023-03-22T04:51:35.603Z,92303.47
2023-03-22T04:54:05.085Z,92297.53
2023-03-22T04:56:34.414Z,92301.56
2023-03-22T04:59:03.958Z,92303.63
2023-03-22T05:01:35.011Z,92312.84
2023-03-22T05:04:04.636Z,92312.34
2023-03-22T05:06:35.621Z,92315.06
2023-03-22T05:09:05.219Z,92324.84
2023-03-22T05:11:34.616Z,92336.41
2023-03-22T05:14:04.824Z,92330.28
2023-03-22T05:16:34.507Z,92327.06
2023-03-22T05:19:04.002Z,92325.84
2023-03-22T05:21:37.092Z,92333.44
2023-03-22T05:24:07.464Z,92339.00
2023-03-22T05:26:38.270Z,92332.53
2023-03-22T05:29:07.656Z,92339.50
2023-03-22T05:31:38.681Z,92345.25
2023-03-22T05:34:08.298Z,92345.94
2023-03-22T05:36:39.300Z,92350.50
2023-03-22T05:39:09.107Z,92348.53
2023-03-22T05:41:38.480Z,92348.41
2023-03-22T05:44:08.429Z,92354.00
2023-03-22T05:46:37.893Z,92357.91
2023-03-22T05:49:07.277Z,92356.84
2023-03-22T05:51:41.931Z,92361.13
2023-03-22T05:54:12.024Z,92359.34
2023-03-22T05:56:41.374Z,92359.13
2023-03-22T05:59:10.774Z,92368.81
2023-03-22T06:01:41.264Z,92370.94
2023-03-22T06:04:10.821Z,92373.25
2023-03-22T06:06:42.134Z,92375.72
2023-03-22T06:09:17.259Z,92377.09
2023-03-22T06:11:47.301Z,92378.50
2023-03-22T06:14:17.169Z,92382.13
2023-03-22T06:16:46.559Z,92383.44
2023-03-22T06:19:16.121Z,92383.25
2023-03-22T06:21:46.919Z,92393.09
2023-03-22T06:24:16.398Z,92404.59
2023-03-22T06:26:45.813Z,92397.63
2023-03-22T06:29:15.731Z,92401.16
2023-03-22T06:31:45.007Z,92403.19
2023-03-22T06:34:14.289Z,92409.81
2023-03-22T06:36:43.723Z,92408.91
2023-03-22T06:39:14.532Z,92409.31
2023-03-22T06:41:43.752Z,92413.69
2023-03-22T06:44:13.308Z,92425.66
2023-03-22T06:46:42.646Z,92422.13
2023-03-22T06:51:19.450Z,92430.41
2023-03-22T06:53:48.890Z,92433.63
2023-03-22T06:56:18.304Z,92438.25
2023-03-22T06:58:47.972Z,92427.94
2023-03-22T07:01:17.831Z,92423.81
2023-03-22T07:03:47.431Z,92422.75
2023-03-22T07:06:19.688Z,92422.94
2023-03-22T07:08:50.800Z,92422.34
2023-03-22T07:11:22.500Z,92425.44
2023-03-22T07:13:51.940Z,92428.53
2023-03-22T07:16:22.013Z,92429.84
2023-03-22T07:18:51.294Z,92425.13
2023-03-22T07:21:22.167Z,92435.44
2023-03-22T07:23:51.488Z,92436.97
2023-03-22T07:26:20.949Z,92444.53
2023-03-22T07:28:50.347Z,92440.63
2023-03-22T07:31:19.957Z,92444.53
2023-03-22T07:33:49.913Z,92442.38
2023-03-22T07:36:24.069Z,92441.19
2023-03-22T07:38:53.581Z,92444.28
2023-03-22T07:41:24.253Z,92447.38
2023-03-22T07:44:02.232Z,92437.34
2023-03-22T07:46:37.692Z,92445.97
2023-03-22T07:49:07.115Z,92445.16
2023-03-22T07:51:37.956Z,92448.09
2023-03-22T07:54:07.882Z,92443.63
2023-03-22T07:56:37.419Z,92439.94
2023-03-22T07:59:06.918Z,92447.31
2023-03-22T08:01:36.400Z,92447.78
2023-03-22T08:04:05.746Z,92444.72
2023-03-22T08:06:37.217Z,92447.06
2023-03-22T08:09:08.595Z,92450.19
2023-03-22T08:11:38.132Z,92450.16
2023-03-22T08:14:07.560Z,92448.03
2023-03-22T08:16:38.702Z,92457.41
2023-03-22T08:19:09.817Z,92463.44
2023-03-22T08:21:41.078Z,92462.00
2023-03-22T08:24:10.998Z,92465.56
2023-03-22T08:26:40.831Z,92463.56
2023-03-22T08:29:10.139Z,92466.66
2023-03-22T08:31:39.611Z,92469.03
2023-03-22T08:34:08.997Z,92466.28
2023-03-22T08:36:41.208Z,92464.50
2023-03-22T08:39:10.792Z,92465.72
2023-03-22T08:41:41.284Z,92465.81
2023-03-22T08:44:11.319Z,92463.94
2023-03-22T08:46:40.840Z,92462.84
2023-03-22T08:49:10.676Z,92444.72
2023-03-22T08:51:42.030Z,92456.25
2023-03-22T08:54:11.991Z,92452.09
2023-03-22T08:56:42.026Z,92454.72
2023-03-22T08:59:12.217Z,92449.38
2023-03-22T09:01:41.844Z,92457.53
2023-03-22T09:04:11.505Z,92457.28
2023-03-22T09:06:45.505Z,92452.81
2023-03-22T09:09:15.450Z,92448.41
2023-03-22T09:11:45.010Z,92456.00
2023-03-22T09:14:14.464Z,92448.63
2023-03-22T09:16:43.807Z,92446.94
2023-03-22T09:19:13.388Z,92445.28
2023-03-22T09:21:44.355Z,92447.31
2023-03-22T09:24:14.050Z,92441.41
2023-03-22T09:26:43.377Z,92450.88
2023-03-22T09:29:13.209Z,92453.72
2023-03-22T09:31:43.658Z,92448.59
2023-03-22T09:34:13.052Z,92445.81
2023-03-22T09:36:43.808Z,92455.84
2023-03-22T09:39:13.229Z,92453.09
2023-03-22T09:41:48.067Z,92450.31
2023-03-22T09:44:24.278Z,92449.03
2023-03-22T09:47:00.218Z,92442.84
2023-03-22T09:51:34.346Z,92442.00
2023-03-22T09:54:04.676Z,92447.66
2023-03-22T09:56:35.380Z,92443.19
2023-03-22T09:59:13.653Z,92445.41
2023-03-22T10:01:52.561Z,92449.78
2023-03-22T10:04:42.586Z,92454.09
2023-03-22T10:07:27.517Z,92448.75
2023-03-22T10:10:18.119Z,92448.31
2023-03-22T10:12:57.854Z,92453.25
2023-03-22T10:15:33.992Z,92450.47
2023-03-22T10:18:08.380Z,92449.69
2023-03-22T10:20:45.888Z,92447.59
2023-03-22T10:23:21.795Z,92442.50
2023-03-22T10:25:53.186Z,92452.00
2023-03-22T10:28:26.883Z,92442.75
2023-03-22T10:30:59.129Z,92448.34
2023-03-22T10:33:40.477Z,92451.06
2023-03-22T10:36:14.969Z,92450.72
2023-03-22T10:38:50.720Z,92443.16
2023-03-22T10:41:23.553Z,92453.13
2023-03-22T10:43:56.715Z,92450.66
2023-03-22T10:46:30.502Z,92448.28
2023-03-22T10:49:03.957Z,92452.66
2023-03-22T10:51:40.412Z,92463.69
2023-03-22T10:54:17.522Z,92457.78
2023-03-22T10:56:46.831Z,92456.13
2023-03-22T10:59:51.431Z,92451.97
2023-03-22T11:02:25.026Z,92442.75
2023-03-22T11:04:57.413Z,92446.91
2023-03-22T11:07:35.017Z,92442.59
2023-03-22T11:10:24.658Z,92439.44
2023-03-22T11:13:00.817Z,92445.56
2023-03-22T11:15:32.936Z,92448.53
2023-03-22T11:18:12.295Z,92450.19
2023-03-22T11:20:44.455Z,92441.91
2023-03-22T11:23:18.324Z,92445.84
2023-03-22T11:25:52.291Z,92444.28
2023-03-22T11:28:23.808Z,92445.97
2023-03-22T11:31:08.611Z,92444.38
2023-03-22T11:33:39.934Z,92448.53
2023-03-22T11:36:20.030Z,92453.97
2023-03-22T11:38:49.690Z,92457.78
2023-03-22T11:41:27.593Z,92456.00
2023-03-22T11:43:59.591Z,92443.78
2023-03-22T11:46:29.395Z,92449.00
2023-03-22T11:49:06.175Z,92451.25
2023-03-22T11:51:39.251Z,92447.34
2023-03-22T11:54:12.200Z,92454.44
2023-03-22T11:56:47.056Z,92450.63
2023-03-22T11:59:22.832Z,92453.25
2023-03-22T12:01:59.130Z,92443.66
2023-03-22T12:04:33.159Z,92452.31
2023-03-22T12:07:07.131Z,92454.94
2023-03-22T12:09:44.806Z,92447.69
2023-03-22T12:12:21.406Z,92442.38
2023-03-22T12:14:56.333Z,92445.31
2023-03-22T12:17:33.870Z,92435.13
2023-03-22T12:20:13.941Z,92439.91
2023-03-22T12:22:51.332Z,92439.66
2023-03-22T12:25:24.943Z,92433.16
2023-03-22T12:27:59.754Z,92440.38
2023-03-22T12:30:35.709Z,92438.47
2023-03-22T12:33:12.322Z,92438.38
2023-03-22T12:35:47.028Z,92437.19
2023-03-22T12:38:28.275Z,92435.78
2023-03-22T12:41:03.865Z,92435.19
2023-03-22T12:43:47.083Z,92432.44
2023-03-22T12:46:22.342Z,92436.69
2023-03-22T12:51:19.258Z,92443.94
2023-03-22T12:53:52.720Z,92436.09
2023-03-22T12:56:26.354Z,92439.53
2023-03-22T12:58:59.138Z,92442.97
2023-03-22T13:01:38.569Z,92437.75
2023-03-22T13:04:32.074Z,92444.38
2023-03-22T13:07:17.308Z,92435.16
2023-03-22T13:09:48.899Z,92436.19
2023-03-22T13:13:13.595Z,92441.31
2023-03-22T13:16:00.470Z,92436.28
2023-03-22T13:19:00.250Z,92434.34
2023-03-22T13:21:33.634Z,92429.94
2023-03-22T13:24:25.862Z,92431.81
2023-03-22T13:26:57.070Z,92438.69
2023-03-22T13:29:36.685Z,92434.66
2023-03-22T13:32:09.257Z,92433.16
2023-03-22T13:34:41.171Z,92433.16
2023-03-22T13:37:30.478Z,92436.72
2023-03-22T13:40:02.501Z,92433.97
2023-03-22T13:42:38.349Z,92431.94
2023-03-22T13:45:31.770Z,92434.56
2023-03-22T13:48:07.840Z,92427.19
2023-03-22T13:50:39.092Z,92431.88
2023-03-22T13:53:16.972Z,92428.81
2023-03-22T13:56:03.507Z,92432.84
2023-03-22T13:58:49.831Z,92432.84
2023-03-22T14:01:29.454Z,92429.41
2023-03-22T14:04:03.567Z,92431.00
2023-03-22T14:06:36.868Z,92430.78
2023-03-22T14:09:17.751Z,92426.75
2023-03-22T14:11:56.503Z,92430.31
2023-03-22T14:14:32.952Z,92429.03
2023-03-22T14:17:09.675Z,92431.66
2023-03-22T14:19:39.308Z,92434.41
